sensor_id;sensor_type;location;lat;lon;timestamp;temperature;humidity
435;DHT22;204;48.942;9.256;2024-02-21T00:00:17;8.30;1.00
435;DHT22;204;48.942;9.256;2024-02-21T00:02:43;8.30;1.00
435;DHT22;204;48.942;9.256;2024-02-21T00:05:09;8.30;1.00
435;DHT22;204;48.942;9.256;2024-02-21T00:07:34;8.30;1.00
435;DHT22;204;48.942;9.256;2024-02-21T00:10:00;8.30;1.00
435;DHT22;204;48.942;9.256;2024-02-21T00:12:26;8.40;1.00
435;DHT22;204;48.942;9.256;2024-02-21T00:14:51;8.40;1.00
435;DHT22;204;48.942;9.256;2024-02-21T00:17:17;8.40;1.00
435;DHT22;204;48.942;9.256;2024-02-21T00:19:42;8.50;1.00
435;DHT22;204;48.942;9.256;2024-02-21T00:22:08;8.50;1.00
435;DHT22;204;48.942;9.256;2024-02-21T00:24:33;8.50;1.00
435;DHT22;204;48.942;9.256;2024-02-21T00:26:59;8.50;1.00
435;DHT22;204;48.942;9.256;2024-02-21T00:29:24;8.50;1.00
435;DHT22;204;48.942;9.256;2024-02-21T00:31:51;8.60;1.00
435;DHT22;204;48.942;9.256;2024-02-21T00:34:16;8.50;1.00
435;DHT22;204;48.942;9.256;2024-02-21T00:36:42;8.50;1.00
435;DHT22;204;48.942;9.256;2024-02-21T00:39:07;8.50;1.00
435;DHT22;204;48.942;9.256;2024-02-21T00:41:33;8.50;1.00
435;DHT22;204;48.942;9.256;2024-02-21T00:43:58;8.50;1.00
435;DHT22;204;48.942;9.256;2024-02-21T00:46:24;8.50;1.00
435;DHT22;204;48.942;9.256;2024-02-21T00:48:49;8.50;1.00
435;DHT22;204;48.942;9.256;2024-02-21T00:51:16;8.50;1.00
435;DHT22;204;48.942;9.256;2024-02-21T00:53:42;8.50;1.00
435;DHT22;204;48.942;9.256;2024-02-21T00:56:08;8.60;1.00
435;DHT22;204;48.942;9.256;2024-02-21T00:58:33;8.60;1.00
435;DHT22;204;48.942;9.256;2024-02-21T01:01:00;8.60;1.00
435;DHT22;204;48.942;9.256;2024-02-21T01:03:26;8.70;1.00
435;DHT22;204;48.942;9.256;2024-02-21T01:05:52;8.70;1.00
435;DHT22;204;48.942;9.256;2024-02-21T01:08:17;8.70;1.00
435;DHT22;204;48.942;9.256;2024-02-21T01:10:43;8.70;1.00
435;DHT22;204;48.942;9.256;2024-02-21T01:13:09;8.70;1.00
435;DHT22;204;48.942;9.256;2024-02-21T01:15:34;8.70;1.00
435;DHT22;204;48.942;9.256;2024-02-21T01:18:01;8.70;1.00
435;DHT22;204;48.942;9.256;2024-02-21T01:20:26;8.70;1.00
435;DHT22;204;48.942;9.256;2024-02-21T01:22:52;8.70;1.00
435;DHT22;204;48.942;9.256;2024-02-21T01:25:17;8.70;99.90
435;DHT22;204;48.942;9.256;2024-02-21T01:27:43;8.70;1.00
435;DHT22;204;48.942;9.256;2024-02-21T01:30:09;8.60;1.00
435;DHT22;204;48.942;9.256;2024-02-21T01:32:36;8.70;1.00
435;DHT22;204;48.942;9.256;2024-02-21T01:35:01;8.70;1.00
435;DHT22;204;48.942;9.256;2024-02-21T01:37:27;8.70;1.00
435;DHT22;204;48.942;9.256;2024-02-21T01:39:53;8.70;1.00
435;DHT22;204;48.942;9.256;2024-02-21T01:42:18;8.70;1.00
435;DHT22;204;48.942;9.256;2024-02-21T01:44:44;8.70;1.00
435;DHT22;204;48.942;9.256;2024-02-21T01:47:10;8.70;1.00
435;DHT22;204;48.942;9.256;2024-02-21T01:49:39;8.70;1.00
435;DHT22;204;48.942;9.256;2024-02-21T01:52:05;8.70;1.00
435;DHT22;204;48.942;9.256;2024-02-21T01:54:31;8.70;1.00
435;DHT22;204;48.942;9.256;2024-02-21T01:56:57;8.70;1.00
435;DHT22;204;48.942;9.256;2024-02-21T01:59:23;8.70;1.00
435;DHT22;204;48.942;9.256;2024-02-21T02:01:50;8.70;1.00
435;DHT22;204;48.942;9.256;2024-02-21T02:04:16;8.70;1.00
435;DHT22;204;48.942;9.256;2024-02-21T02:06:42;8.70;1.00
435;DHT22;204;48.942;9.256;2024-02-21T02:09:08;8.70;1.00
435;DHT22;204;48.942;9.256;2024-02-21T02:11:35;8.70;1.00
435;DHT22;204;48.942;9.256;2024-02-21T02:14:01;8.70;1.00
435;DHT22;204;48.942;9.256;2024-02-21T02:16:26;8.70;1.00
435;DHT22;204;48.942;9.256;2024-02-21T02:18:52;8.70;1.00
435;DHT22;204;48.942;9.256;2024-02-21T02:21:29;8.70;1.00
435;DHT22;204;48.942;9.256;2024-02-21T02:23:55;8.80;1.00
435;DHT22;204;48.942;9.256;2024-02-21T02:26:21;8.80;1.00
435;DHT22;204;48.942;9.256;2024-02-21T02:28:47;8.80;1.00
435;DHT22;204;48.942;9.256;2024-02-21T02:31:12;8.70;1.00
435;DHT22;204;48.942;9.256;2024-02-21T02:33:38;8.80;1.00
435;DHT22;204;48.942;9.256;2024-02-21T02:36:04;8.80;1.00
435;DHT22;204;48.942;9.256;2024-02-21T02:38:29;8.80;1.00
435;DHT22;204;48.942;9.256;2024-02-21T02:40:55;8.80;1.00
435;DHT22;204;48.942;9.256;2024-02-21T02:43:20;8.80;1.00
435;DHT22;204;48.942;9.256;2024-02-21T02:45:46;8.70;1.00
435;DHT22;204;48.942;9.256;2024-02-21T02:48:11;8.60;1.00
435;DHT22;204;48.942;9.256;2024-02-21T02:50:37;8.60;1.00
435;DHT22;204;48.942;9.256;2024-02-21T02:53:03;8.50;1.00
435;DHT22;204;48.942;9.256;2024-02-21T02:55:28;8.40;1.00
435;DHT22;204;48.942;9.256;2024-02-21T02:57:54;8.40;1.00
435;DHT22;204;48.942;9.256;2024-02-21T03:00:20;8.40;1.00
435;DHT22;204;48.942;9.256;2024-02-21T03:02:46;8.40;1.00
435;DHT22;204;48.942;9.256;2024-02-21T03:05:20;8.40;1.00
435;DHT22;204;48.942;9.256;2024-02-21T03:07:47;8.30;1.00
435;DHT22;204;48.942;9.256;2024-02-21T03:10:14;8.30;1.00
435;DHT22;204;48.942;9.256;2024-02-21T03:12:42;8.30;1.00
435;DHT22;204;48.942;9.256;2024-02-21T03:15:08;8.30;1.00
435;DHT22;204;48.942;9.256;2024-02-21T03:17:33;8.30;1.00
435;DHT22;204;48.942;9.256;2024-02-21T03:20:03;8.40;1.00
435;DHT22;204;48.942;9.256;2024-02-21T03:22:34;8.30;1.00
435;DHT22;204;48.942;9.256;2024-02-21T03:25:00;8.30;1.00
435;DHT22;204;48.942;9.256;2024-02-21T03:27:25;8.30;1.00
435;DHT22;204;48.942;9.256;2024-02-21T03:29:51;8.30;1.00
435;DHT22;204;48.942;9.256;2024-02-21T03:32:16;8.30;1.00
435;DHT22;204;48.942;9.256;2024-02-21T03:34:42;8.30;1.00
435;DHT22;204;48.942;9.256;2024-02-21T03:37:07;8.30;1.00
435;DHT22;204;48.942;9.256;2024-02-21T03:39:33;8.20;1.00
435;DHT22;204;48.942;9.256;2024-02-21T03:41:59;8.20;1.00
435;DHT22;204;48.942;9.256;2024-02-21T03:44:30;8.20;1.00
435;DHT22;204;48.942;9.256;2024-02-21T03:46:56;8.20;1.00
435;DHT22;204;48.942;9.256;2024-02-21T03:49:22;8.20;1.00
435;DHT22;204;48.942;9.256;2024-02-21T03:51:47;8.10;1.00
435;DHT22;204;48.942;9.256;2024-02-21T03:54:13;8.10;1.00
435;DHT22;204;48.942;9.256;2024-02-21T03:56:39;8.10;1.00
435;DHT22;204;48.942;9.256;2024-02-21T03:59:07;8.10;1.00
435;DHT22;204;48.942;9.256;2024-02-21T04:01:34;8.10;1.00
435;DHT22;204;48.942;9.256;2024-02-21T04:04:00;8.10;1.00
435;DHT22;204;48.942;9.256;2024-02-21T04:06:25;8.10;1.00
435;DHT22;204;48.942;9.256;2024-02-21T04:08:51;8.10;1.00
435;DHT22;204;48.942;9.256;2024-02-21T04:11:16;8.10;1.00
435;DHT22;204;48.942;9.256;2024-02-21T04:13:44;8.00;1.00
435;DHT22;204;48.942;9.256;2024-02-21T04:16:10;8.00;1.00
435;DHT22;204;48.942;9.256;2024-02-21T04:18:35;8.00;1.00
435;DHT22;204;48.942;9.256;2024-02-21T04:21:01;7.90;1.00
435;DHT22;204;48.942;9.256;2024-02-21T04:23:26;7.90;1.00
435;DHT22;204;48.942;9.256;2024-02-21T04:25:52;7.80;1.00
435;DHT22;204;48.942;9.256;2024-02-21T04:28:18;7.70;1.00
435;DHT22;204;48.942;9.256;2024-02-21T04:30:43;7.70;1.00
435;DHT22;204;48.942;9.256;2024-02-21T04:33:09;7.60;1.00
435;DHT22;204;48.942;9.256;2024-02-21T04:35:36;7.60;1.00
435;DHT22;204;48.942;9.256;2024-02-21T04:38:02;7.50;1.00
435;DHT22;204;48.942;9.256;2024-02-21T04:40:27;7.50;1.00
435;DHT22;204;48.942;9.256;2024-02-21T04:42:53;7.40;1.00
435;DHT22;204;48.942;9.256;2024-02-21T04:45:19;7.40;1.00
435;DHT22;204;48.942;9.256;2024-02-21T04:47:44;7.30;1.00
435;DHT22;204;48.942;9.256;2024-02-21T04:50:10;7.30;1.00
435;DHT22;204;48.942;9.256;2024-02-21T04:52:36;7.20;1.00
435;DHT22;204;48.942;9.256;2024-02-21T04:55:01;7.10;1.00
435;DHT22;204;48.942;9.256;2024-02-21T04:57:27;7.10;1.00
435;DHT22;204;48.942;9.256;2024-02-21T04:59:52;7.10;1.00
435;DHT22;204;48.942;9.256;2024-02-21T05:02:18;7.00;1.00
435;DHT22;204;48.942;9.256;2024-02-21T05:04:45;6.90;1.00
435;DHT22;204;48.942;9.256;2024-02-21T05:07:11;6.90;1.00
435;DHT22;204;48.942;9.256;2024-02-21T05:09:37;6.80;1.00
435;DHT22;204;48.942;9.256;2024-02-21T05:12:03;6.80;1.00
435;DHT22;204;48.942;9.256;2024-02-21T05:14:29;6.70;1.00
435;DHT22;204;48.942;9.256;2024-02-21T05:16:54;6.60;1.00
435;DHT22;204;48.942;9.256;2024-02-21T05:19:20;6.60;1.00
435;DHT22;204;48.942;9.256;2024-02-21T05:21:46;6.50;1.00
435;DHT22;204;48.942;9.256;2024-02-21T05:24:11;6.40;1.00
435;DHT22;204;48.942;9.256;2024-02-21T05:26:37;6.40;1.00
435;DHT22;204;48.942;9.256;2024-02-21T05:29:03;6.30;1.00
435;DHT22;204;48.942;9.256;2024-02-21T05:34:15;6.20;1.00
435;DHT22;204;48.942;9.256;2024-02-21T05:36:40;6.10;1.00
435;DHT22;204;48.942;9.256;2024-02-21T05:39:06;6.10;1.00
435;DHT22;204;48.942;9.256;2024-02-21T05:41:31;6.00;1.00
435;DHT22;204;48.942;9.256;2024-02-21T05:43:57;6.00;1.00
435;DHT22;204;48.942;9.256;2024-02-21T05:46:22;5.90;1.00
435;DHT22;204;48.942;9.256;2024-02-21T05:48:48;5.90;1.00
435;DHT22;204;48.942;9.256;2024-02-21T05:51:13;5.90;1.00
435;DHT22;204;48.942;9.256;2024-02-21T05:53:40;5.90;1.00
435;DHT22;204;48.942;9.256;2024-02-21T05:56:10;5.90;1.00
435;DHT22;204;48.942;9.256;2024-02-21T05:58:37;5.90;1.00
435;DHT22;204;48.942;9.256;2024-02-21T06:01:02;5.90;1.00
435;DHT22;204;48.942;9.256;2024-02-21T06:03:29;5.90;1.00
435;DHT22;204;48.942;9.256;2024-02-21T06:05:55;5.90;1.00
435;DHT22;204;48.942;9.256;2024-02-21T06:08:20;5.90;1.00
435;DHT22;204;48.942;9.256;2024-02-21T06:10:46;5.90;1.00
435;DHT22;204;48.942;9.256;2024-02-21T06:13:12;5.90;1.00
435;DHT22;204;48.942;9.256;2024-02-21T06:15:38;5.90;1.00
435;DHT22;204;48.942;9.256;2024-02-21T06:18:03;5.80;1.00
435;DHT22;204;48.942;9.256;2024-02-21T06:20:29;5.80;1.00
435;DHT22;204;48.942;9.256;2024-02-21T06:22:55;5.70;1.00
435;DHT22;204;48.942;9.256;2024-02-21T06:25:20;5.70;1.00
435;DHT22;204;48.942;9.256;2024-02-21T06:27:46;5.70;1.00
435;DHT22;204;48.942;9.256;2024-02-21T06:30:12;5.70;1.00
435;DHT22;204;48.942;9.256;2024-02-21T06:32:37;5.70;1.00
435;DHT22;204;48.942;9.256;2024-02-21T06:35:04;5.70;1.00
435;DHT22;204;48.942;9.256;2024-02-21T06:37:30;5.70;1.00
435;DHT22;204;48.942;9.256;2024-02-21T06:39:57;5.70;1.00
435;DHT22;204;48.942;9.256;2024-02-21T06:42:24;5.70;1.00
435;DHT22;204;48.942;9.256;2024-02-21T06:44:50;5.80;1.00
435;DHT22;204;48.942;9.256;2024-02-21T06:47:16;5.70;1.00
435;DHT22;204;48.942;9.256;2024-02-21T06:49:41;5.80;1.00
435;DHT22;204;48.942;9.256;2024-02-21T06:52:07;5.80;1.00
435;DHT22;204;48.942;9.256;2024-02-21T06:54:33;5.80;1.00
435;DHT22;204;48.942;9.256;2024-02-21T06:56:58;5.80;1.00
435;DHT22;204;48.942;9.256;2024-02-21T06:59:24;5.90;1.00
435;DHT22;204;48.942;9.256;2024-02-21T07:01:53;5.90;1.00
435;DHT22;204;48.942;9.256;2024-02-21T07:04:19;6.00;1.00
435;DHT22;204;48.942;9.256;2024-02-21T07:06:45;6.10;1.00
435;DHT22;204;48.942;9.256;2024-02-21T07:09:11;6.20;1.00
435;DHT22;204;48.942;9.256;2024-02-21T07:11:36;6.00;1.00
435;DHT22;204;48.942;9.256;2024-02-21T07:14:02;5.90;1.00
435;DHT22;204;48.942;9.256;2024-02-21T07:16:27;5.70;1.00
435;DHT22;204;48.942;9.256;2024-02-21T07:18:55;5.60;1.00
435;DHT22;204;48.942;9.256;2024-02-21T07:21:20;5.80;1.00
435;DHT22;204;48.942;9.256;2024-02-21T07:23:46;6.00;1.00
435;DHT22;204;48.942;9.256;2024-02-21T07:26:11;6.20;1.00
435;DHT22;204;48.942;9.256;2024-02-21T07:28:37;6.30;1.00
435;DHT22;204;48.942;9.256;2024-02-21T07:31:03;6.50;1.00
435;DHT22;204;48.942;9.256;2024-02-21T07:33:28;6.70;1.00
435;DHT22;204;48.942;9.256;2024-02-21T07:35:56;6.80;1.00
435;DHT22;204;48.942;9.256;2024-02-21T07:38:21;7.00;1.00
435;DHT22;204;48.942;9.256;2024-02-21T07:40:47;7.20;1.00
435;DHT22;204;48.942;9.256;2024-02-21T07:43:13;7.40;1.00
435;DHT22;204;48.942;9.256;2024-02-21T07:45:39;7.60;1.00
435;DHT22;204;48.942;9.256;2024-02-21T07:48:05;7.80;1.00
435;DHT22;204;48.942;9.256;2024-02-21T07:50:31;7.90;1.00
435;DHT22;204;48.942;9.256;2024-02-21T07:52:57;8.10;1.00
435;DHT22;204;48.942;9.256;2024-02-21T07:55:22;8.20;1.00
435;DHT22;204;48.942;9.256;2024-02-21T07:57:48;8.40;1.00
435;DHT22;204;48.942;9.256;2024-02-21T08:00:15;8.60;1.00
435;DHT22;204;48.942;9.256;2024-02-21T08:02:45;8.70;1.00
435;DHT22;204;48.942;9.256;2024-02-21T08:05:11;8.80;1.00
435;DHT22;204;48.942;9.256;2024-02-21T08:07:38;9.00;1.00
435;DHT22;204;48.942;9.256;2024-02-21T08:10:04;9.10;1.00
435;DHT22;204;48.942;9.256;2024-02-21T08:12:30;9.30;1.00
435;DHT22;204;48.942;9.256;2024-02-21T08:14:55;9.40;1.00
435;DHT22;204;48.942;9.256;2024-02-21T08:17:21;9.60;1.00
435;DHT22;204;48.942;9.256;2024-02-21T08:19:46;9.70;1.00
435;DHT22;204;48.942;9.256;2024-02-21T08:22:14;9.90;1.00
435;DHT22;204;48.942;9.256;2024-02-21T08:24:40;10.10;99.90
435;DHT22;204;48.942;9.256;2024-02-21T08:27:06;10.30;99.90
435;DHT22;204;48.942;9.256;2024-02-21T08:29:31;10.50;99.90
435;DHT22;204;48.942;9.256;2024-02-21T08:31:57;10.60;99.90
435;DHT22;204;48.942;9.256;2024-02-21T08:34:22;10.80;99.90
435;DHT22;204;48.942;9.256;2024-02-21T08:36:48;11.00;99.90
435;DHT22;204;48.942;9.256;2024-02-21T08:39:13;11.20;99.90
435;DHT22;204;48.942;9.256;2024-02-21T08:41:42;11.30;99.90
435;DHT22;204;48.942;9.256;2024-02-21T08:44:08;11.40;99.90
435;DHT22;204;48.942;9.256;2024-02-21T08:46:33;11.60;99.90
435;DHT22;204;48.942;9.256;2024-02-21T08:48:59;11.80;99.90
435;DHT22;204;48.942;9.256;2024-02-21T08:51:24;12.00;99.90
435;DHT22;204;48.942;9.256;2024-02-21T08:53:50;12.10;99.90
435;DHT22;204;48.942;9.256;2024-02-21T08:56:17;12.20;99.90
435;DHT22;204;48.942;9.256;2024-02-21T08:58:43;12.20;99.90
435;DHT22;204;48.942;9.256;2024-02-21T09:01:09;12.20;99.90
435;DHT22;204;48.942;9.256;2024-02-21T09:03:39;12.30;99.90
435;DHT22;204;48.942;9.256;2024-02-21T09:06:05;12.30;99.90
435;DHT22;204;48.942;9.256;2024-02-21T09:08:31;12.30;99.90
435;DHT22;204;48.942;9.256;2024-02-21T09:10:57;12.40;99.90
435;DHT22;204;48.942;9.256;2024-02-21T09:13:22;12.50;99.90
435;DHT22;204;48.942;9.256;2024-02-21T09:15:49;12.60;99.90
435;DHT22;204;48.942;9.256;2024-02-21T09:18:15;12.70;99.90
435;DHT22;204;48.942;9.256;2024-02-21T09:20:42;12.80;99.90
435;DHT22;204;48.942;9.256;2024-02-21T09:23:08;12.90;99.90
435;DHT22;204;48.942;9.256;2024-02-21T09:25:34;12.90;99.90
435;DHT22;204;48.942;9.256;2024-02-21T09:28:01;13.00;99.90
435;DHT22;204;48.942;9.256;2024-02-21T09:30:27;13.20;99.90
435;DHT22;204;48.942;9.256;2024-02-21T09:33:05;13.20;99.90
435;DHT22;204;48.942;9.256;2024-02-21T09:35:42;13.40;99.90
435;DHT22;204;48.942;9.256;2024-02-21T09:38:34;13.50;99.90
435;DHT22;204;48.942;9.256;2024-02-21T09:47:40;13.90;99.90
435;DHT22;204;48.942;9.256;2024-02-21T09:50:19;14.10;99.90
435;DHT22;204;48.942;9.256;2024-02-21T09:52:54;14.20;99.90
435;DHT22;204;48.942;9.256;2024-02-21T09:55:39;14.30;99.90
435;DHT22;204;48.942;9.256;2024-02-21T09:58:14;14.30;99.90
435;DHT22;204;48.942;9.256;2024-02-21T10:01:12;14.30;99.90
435;DHT22;204;48.942;9.256;2024-02-21T10:07:24;14.50;99.90
435;DHT22;204;48.942;9.256;2024-02-21T10:10:03;14.50;99.90
435;DHT22;204;48.942;9.256;2024-02-21T10:12:54;14.50;99.90
435;DHT22;204;48.942;9.256;2024-02-21T10:15:44;14.60;99.90
435;DHT22;204;48.942;9.256;2024-02-21T10:25:49;14.80;99.90
435;DHT22;204;48.942;9.256;2024-02-21T10:32:29;14.90;99.90
435;DHT22;204;48.942;9.256;2024-02-21T11:11:53;16.20;99.90
435;DHT22;204;48.942;9.256;2024-02-21T11:14:20;16.40;99.90
435;DHT22;204;48.942;9.256;2024-02-21T11:16:46;16.50;99.90
435;DHT22;204;48.942;9.256;2024-02-21T11:19:22;16.50;99.90
435;DHT22;204;48.942;9.256;2024-02-21T11:21:49;16.60;99.90
435;DHT22;204;48.942;9.256;2024-02-21T11:24:32;16.60;99.90
435;DHT22;204;48.942;9.256;2024-02-21T11:29:48;16.80;99.90
435;DHT22;204;48.942;9.256;2024-02-21T11:32:17;16.80;99.90
435;DHT22;204;48.942;9.256;2024-02-21T11:35:02;16.90;99.90
435;DHT22;204;48.942;9.256;2024-02-21T11:37:30;16.90;99.90
435;DHT22;204;48.942;9.256;2024-02-21T11:39:57;16.90;99.90
435;DHT22;204;48.942;9.256;2024-02-21T11:42:28;16.80;99.90
435;DHT22;204;48.942;9.256;2024-02-21T11:44:54;16.90;99.90
435;DHT22;204;48.942;9.256;2024-02-21T11:47:23;16.90;99.90
435;DHT22;204;48.942;9.256;2024-02-21T11:49:49;16.90;99.90
435;DHT22;204;48.942;9.256;2024-02-21T11:52:21;17.00;99.90
435;DHT22;204;48.942;9.256;2024-02-21T11:54:48;17.00;99.90
435;DHT22;204;48.942;9.256;2024-02-21T11:57:13;17.00;99.90
435;DHT22;204;48.942;9.256;2024-02-21T11:59:40;17.00;99.90
435;DHT22;204;48.942;9.256;2024-02-21T12:02:06;17.00;99.90
435;DHT22;204;48.942;9.256;2024-02-21T12:04:32;16.90;99.90
435;DHT22;204;48.942;9.256;2024-02-21T12:06:58;17.00;99.90
435;DHT22;204;48.942;9.256;2024-02-21T12:09:25;17.00;99.90
435;DHT22;204;48.942;9.256;2024-02-21T12:12:03;17.00;99.90
435;DHT22;204;48.942;9.256;2024-02-21T12:14:30;17.00;99.90
435;DHT22;204;48.942;9.256;2024-02-21T12:16:56;17.00;99.90
435;DHT22;204;48.942;9.256;2024-02-21T12:19:22;17.10;99.90
435;DHT22;204;48.942;9.256;2024-02-21T12:21:49;17.20;99.90
435;DHT22;204;48.942;9.256;2024-02-21T12:24:24;17.30;99.90
435;DHT22;204;48.942;9.256;2024-02-21T12:26:51;17.30;99.90
435;DHT22;204;48.942;9.256;2024-02-21T12:29:18;17.30;99.90
435;DHT22;204;48.942;9.256;2024-02-21T12:31:44;17.30;99.90
435;DHT22;204;48.942;9.256;2024-02-21T12:34:10;17.30;99.90
435;DHT22;204;48.942;9.256;2024-02-21T12:36:45;17.30;99.90
435;DHT22;204;48.942;9.256;2024-02-21T12:39:14;17.20;99.90
435;DHT22;204;48.942;9.256;2024-02-21T12:41:40;17.20;99.90
435;DHT22;204;48.942;9.256;2024-02-21T12:44:08;17.20;99.90
435;DHT22;204;48.942;9.256;2024-02-21T12:46:37;17.30;99.90
435;DHT22;204;48.942;9.256;2024-02-21T12:49:03;17.20;99.90
435;DHT22;204;48.942;9.256;2024-02-21T12:51:32;17.20;99.90
435;DHT22;204;48.942;9.256;2024-02-21T12:53:58;17.30;99.90
435;DHT22;204;48.942;9.256;2024-02-21T12:56:24;17.40;99.90
435;DHT22;204;48.942;9.256;2024-02-21T12:58:51;17.40;99.90
435;DHT22;204;48.942;9.256;2024-02-21T13:01:17;17.50;99.90
435;DHT22;204;48.942;9.256;2024-02-21T13:03:42;17.50;99.90
435;DHT22;204;48.942;9.256;2024-02-21T13:06:08;17.50;99.90
435;DHT22;204;48.942;9.256;2024-02-21T13:08:37;17.40;99.90
435;DHT22;204;48.942;9.256;2024-02-21T13:11:03;17.40;99.90
435;DHT22;204;48.942;9.256;2024-02-21T13:13:29;17.40;99.90
435;DHT22;204;48.942;9.256;2024-02-21T13:15:55;17.50;99.90
435;DHT22;204;48.942;9.256;2024-02-21T13:18:20;17.50;99.90
435;DHT22;204;48.942;9.256;2024-02-21T13:20:47;17.50;99.90
435;DHT22;204;48.942;9.256;2024-02-21T13:23:24;17.50;99.90
435;DHT22;204;48.942;9.256;2024-02-21T13:25:49;17.40;99.90
435;DHT22;204;48.942;9.256;2024-02-21T13:28:16;17.30;99.90
435;DHT22;204;48.942;9.256;2024-02-21T13:30:42;17.20;99.90
435;DHT22;204;48.942;9.256;2024-02-21T13:33:08;17.20;99.90
435;DHT22;204;48.942;9.256;2024-02-21T13:35:35;17.10;99.90
435;DHT22;204;48.942;9.256;2024-02-21T13:38:02;17.10;99.90
435;DHT22;204;48.942;9.256;2024-02-21T13:40:28;17.00;99.90
435;DHT22;204;48.942;9.256;2024-02-21T13:42:53;17.00;99.90
435;DHT22;204;48.942;9.256;2024-02-21T13:45:19;16.90;99.90
435;DHT22;204;48.942;9.256;2024-02-21T13:47:45;16.80;99.90
435;DHT22;204;48.942;9.256;2024-02-21T13:50:10;16.70;99.90
435;DHT22;204;48.942;9.256;2024-02-21T13:52:46;16.60;99.90
435;DHT22;204;48.942;9.256;2024-02-21T13:55:12;16.60;99.90
435;DHT22;204;48.942;9.256;2024-02-21T13:57:37;16.50;99.90
435;DHT22;204;48.942;9.256;2024-02-21T14:00:04;16.40;99.90
435;DHT22;204;48.942;9.256;2024-02-21T14:02:30;16.40;99.90
435;DHT22;204;48.942;9.256;2024-02-21T14:04:56;16.40;99.90
435;DHT22;204;48.942;9.256;2024-02-21T14:07:21;16.30;99.90
435;DHT22;204;48.942;9.256;2024-02-21T14:09:47;16.40;99.90
435;DHT22;204;48.942;9.256;2024-02-21T14:12:13;16.30;99.90
435;DHT22;204;48.942;9.256;2024-02-21T14:14:38;16.20;99.90
435;DHT22;204;48.942;9.256;2024-02-21T14:17:04;16.10;99.90
435;DHT22;204;48.942;9.256;2024-02-21T14:19:30;16.10;99.90
435;DHT22;204;48.942;9.256;2024-02-21T14:21:56;16.00;99.90
435;DHT22;204;48.942;9.256;2024-02-21T14:24:22;16.00;99.90
435;DHT22;204;48.942;9.256;2024-02-21T14:26:48;16.00;99.90
435;DHT22;204;48.942;9.256;2024-02-21T14:29:14;16.00;99.90
435;DHT22;204;48.942;9.256;2024-02-21T14:31:40;16.00;99.90
435;DHT22;204;48.942;9.256;2024-02-21T14:34:05;15.90;99.90
435;DHT22;204;48.942;9.256;2024-02-21T14:36:33;16.00;99.90
435;DHT22;204;48.942;9.256;2024-02-21T14:38:58;16.00;99.90
435;DHT22;204;48.942;9.256;2024-02-21T14:41:24;15.80;99.90
435;DHT22;204;48.942;9.256;2024-02-21T14:43:50;15.80;99.90
435;DHT22;204;48.942;9.256;2024-02-21T14:46:17;15.80;99.90
435;DHT22;204;48.942;9.256;2024-02-21T14:48:42;15.70;99.90
435;DHT22;204;48.942;9.256;2024-02-21T14:51:08;15.60;99.90
435;DHT22;204;48.942;9.256;2024-02-21T14:53:33;15.50;99.90
435;DHT22;204;48.942;9.256;2024-02-21T14:55:59;15.50;99.90
435;DHT22;204;48.942;9.256;2024-02-21T14:58:24;15.40;99.90
435;DHT22;204;48.942;9.256;2024-02-21T15:00:50;15.30;99.90
435;DHT22;204;48.942;9.256;2024-02-21T15:03:16;15.30;99.90
435;DHT22;204;48.942;9.256;2024-02-21T15:05:45;15.30;99.90
435;DHT22;204;48.942;9.256;2024-02-21T15:08:11;15.30;99.90
435;DHT22;204;48.942;9.256;2024-02-21T15:10:37;15.20;99.90
435;DHT22;204;48.942;9.256;2024-02-21T15:13:03;15.20;99.90
435;DHT22;204;48.942;9.256;2024-02-21T15:15:29;15.20;99.90
435;DHT22;204;48.942;9.256;2024-02-21T15:17:55;15.20;99.90
435;DHT22;204;48.942;9.256;2024-02-21T15:20:20;15.20;99.90
435;DHT22;204;48.942;9.256;2024-02-21T15:22:46;15.30;99.90
435;DHT22;204;48.942;9.256;2024-02-21T15:25:11;15.30;99.90
435;DHT22;204;48.942;9.256;2024-02-21T15:27:41;15.20;99.90
435;DHT22;204;48.942;9.256;2024-02-21T15:30:09;15.10;99.90
435;DHT22;204;48.942;9.256;2024-02-21T15:32:34;15.10;99.90
435;DHT22;204;48.942;9.256;2024-02-21T15:35:00;15.00;99.90
435;DHT22;204;48.942;9.256;2024-02-21T15:37:27;15.00;99.90
435;DHT22;204;48.942;9.256;2024-02-21T15:39:53;15.00;99.90
435;DHT22;204;48.942;9.256;2024-02-21T15:42:18;14.90;99.90
435;DHT22;204;48.942;9.256;2024-02-21T15:44:45;14.80;99.90
435;DHT22;204;48.942;9.256;2024-02-21T15:47:10;14.60;99.90
435;DHT22;204;48.942;9.256;2024-02-21T15:49:36;14.50;99.90
435;DHT22;204;48.942;9.256;2024-02-21T15:52:02;14.40;99.90
435;DHT22;204;48.942;9.256;2024-02-21T15:54:28;14.30;99.90
435;DHT22;204;48.942;9.256;2024-02-21T15:56:54;14.20;99.90
435;DHT22;204;48.942;9.256;2024-02-21T15:59:21;14.20;99.90
435;DHT22;204;48.942;9.256;2024-02-21T16:01:47;14.20;99.90
435;DHT22;204;48.942;9.256;2024-02-21T16:04:12;14.20;99.90
435;DHT22;204;48.942;9.256;2024-02-21T16:06:39;14.20;99.90
435;DHT22;204;48.942;9.256;2024-02-21T16:09:05;14.10;99.90
435;DHT22;204;48.942;9.256;2024-02-21T16:11:32;14.10;99.90
435;DHT22;204;48.942;9.256;2024-02-21T16:14:00;14.00;99.90
435;DHT22;204;48.942;9.256;2024-02-21T16:16:26;14.00;99.90
435;DHT22;204;48.942;9.256;2024-02-21T16:18:52;14.00;99.90
435;DHT22;204;48.942;9.256;2024-02-21T16:21:18;14.00;99.90
435;DHT22;204;48.942;9.256;2024-02-21T16:23:43;13.90;99.90
435;DHT22;204;48.942;9.256;2024-02-21T16:26:09;13.90;99.90
435;DHT22;204;48.942;9.256;2024-02-21T16:28:35;13.80;99.90
435;DHT22;204;48.942;9.256;2024-02-21T16:31:01;13.80;99.90
435;DHT22;204;48.942;9.256;2024-02-21T16:33:26;13.70;99.90
435;DHT22;204;48.942;9.256;2024-02-21T16:35:52;13.60;99.90
435;DHT22;204;48.942;9.256;2024-02-21T16:38:17;13.60;99.90
435;DHT22;204;48.942;9.256;2024-02-21T16:40:44;13.50;99.90
435;DHT22;204;48.942;9.256;2024-02-21T16:43:10;13.40;99.90
435;DHT22;204;48.942;9.256;2024-02-21T16:45:36;13.30;99.90
435;DHT22;204;48.942;9.256;2024-02-21T16:48:02;13.20;99.90
435;DHT22;204;48.942;9.256;2024-02-21T16:50:30;13.10;99.90
435;DHT22;204;48.942;9.256;2024-02-21T16:52:56;13.10;99.90
435;DHT22;204;48.942;9.256;2024-02-21T16:55:22;13.00;99.90
435;DHT22;204;48.942;9.256;2024-02-21T16:57:47;13.00;99.90
435;DHT22;204;48.942;9.256;2024-02-21T17:00:13;12.90;99.90
435;DHT22;204;48.942;9.256;2024-02-21T17:02:42;12.90;99.90
435;DHT22;204;48.942;9.256;2024-02-21T17:05:11;12.80;99.90
435;DHT22;204;48.942;9.256;2024-02-21T17:07:36;12.80;99.90
435;DHT22;204;48.942;9.256;2024-02-21T17:10:03;12.80;99.90
435;DHT22;204;48.942;9.256;2024-02-21T17:12:34;12.80;99.90
435;DHT22;204;48.942;9.256;2024-02-21T17:15:06;12.70;99.90
435;DHT22;204;48.942;9.256;2024-02-21T17:17:33;12.70;99.90
435;DHT22;204;48.942;9.256;2024-02-21T17:20:00;12.70;99.90
435;DHT22;204;48.942;9.256;2024-02-21T17:22:25;12.70;99.90
435;DHT22;204;48.942;9.256;2024-02-21T17:24:51;12.70;99.90
435;DHT22;204;48.942;9.256;2024-02-21T17:27:17;12.60;99.90
435;DHT22;204;48.942;9.256;2024-02-21T17:29:42;12.60;99.90
435;DHT22;204;48.942;9.256;2024-02-21T17:32:08;12.50;99.90
435;DHT22;204;48.942;9.256;2024-02-21T17:34:33;12.50;99.90
435;DHT22;204;48.942;9.256;2024-02-21T17:36:59;12.50;99.90
435;DHT22;204;48.942;9.256;2024-02-21T17:39:25;12.50;99.90
435;DHT22;204;48.942;9.256;2024-02-21T17:41:50;12.40;99.90
435;DHT22;204;48.942;9.256;2024-02-21T17:44:18;12.40;99.90
435;DHT22;204;48.942;9.256;2024-02-21T17:46:44;12.40;99.90
435;DHT22;204;48.942;9.256;2024-02-21T17:49:10;12.40;99.90
435;DHT22;204;48.942;9.256;2024-02-21T17:51:36;12.40;99.90